South Fork, Colorado
Current Conditions -  °F | °C
As of 12:50 AM on Saturday 25 Oct 2014 (Local Time) from KRCV Reporting Station
Clear Clear  
Wind Chill: 40°   Ceiling: Unl
Heat Index: 46°   Visibility: 10mi
Dew Point: 28°   Wind: 16mph
Humidity: 49%   Direction: 290°WNW
Pressure: 30.43"   Gusts: NA
Location:  37.67°N, 106.64°W
Report Text: KRCV 250650Z AUTO 29014KT 10SM CLR 08/M02 A3043 RMK AO2 T00791022 401990037
Loading
Personal Weather Stations






























Interactive Weather Map
Tropical Storm Tracking
New forecast layout! Learn more

10-Day Weather Forecast

Advertisements
Track Severe Weather on mobile